createdAt,value
2019-04-01T00:02:18.783Z,9.37
2019-04-01T00:04:49.184Z,10.50
2019-04-01T00:07:19.660Z,9.10
2019-04-01T00:09:50.097Z,10.93
2019-04-01T00:12:20.555Z,9.63
2019-04-01T00:14:50.985Z,11.33
2019-04-01T00:17:21.628Z,10.27
2019-04-01T00:19:52.053Z,8.77
2019-04-01T00:22:22.555Z,14.70
2019-04-01T00:24:53.005Z,11.10
2019-04-01T00:27:23.540Z,13.47
2019-04-01T00:29:54.152Z,11.67
2019-04-01T00:32:27.660Z,12.53
2019-04-01T00:34:58.058Z,12.03
2019-04-01T00:37:28.512Z,9.17
2019-04-01T00:39:58.913Z,9.43
2019-04-01T00:42:49.474Z,9.27
2019-04-01T00:45:20.721Z,10.83
2019-04-01T00:47:51.147Z,9.93
2019-04-01T00:50:21.661Z,11.63
2019-04-01T00:52:52.061Z,10.47
2019-04-01T00:55:24.776Z,11.70
2019-04-01T00:57:55.295Z,11.80
2019-04-01T01:00:25.720Z,13.43
2019-04-01T01:02:56.259Z,11.77
2019-04-01T01:05:26.715Z,13.20
2019-04-01T01:07:57.146Z,12.93
2019-04-01T01:10:29.057Z,12.90
2019-04-01T01:12:59.509Z,14.27
2019-04-01T01:15:29.977Z,13.13
2019-04-01T01:18:00.414Z,14.13
2019-04-01T01:20:32.145Z,12.70
2019-04-01T01:23:02.663Z,13.50
2019-04-01T01:25:33.182Z,12.00
2019-04-01T01:28:03.749Z,12.73
2019-04-01T01:30:34.163Z,14.57
2019-04-01T01:33:04.734Z,15.00
2019-04-01T01:35:35.603Z,14.97
2019-04-01T01:38:06.083Z,13.00
2019-04-01T01:40:36.486Z,12.17
2019-04-01T01:43:07.112Z,11.17
2019-04-01T01:45:37.514Z,11.53
2019-04-01T01:48:07.924Z,12.23
2019-04-01T01:50:38.329Z,14.40
2019-04-01T01:53:08.738Z,11.03
2019-04-01T01:55:39.165Z,12.97
2019-04-01T01:58:09.558Z,15.40
2019-04-01T02:00:41.916Z,16.90
2019-04-01T02:03:12.350Z,17.93
2019-04-01T02:05:42.892Z,15.20
2019-04-01T02:08:13.703Z,12.67
2019-04-01T02:10:45.028Z,11.10
2019-04-01T02:13:15.843Z,12.33
2019-04-01T02:15:46.218Z,12.60
2019-04-01T02:18:16.622Z,11.93
2019-04-01T02:20:47.400Z,14.57
2019-04-01T02:23:18.101Z,13.50
2019-04-01T02:25:48.520Z,14.20
2019-04-01T02:28:18.938Z,12.60
2019-04-01T02:30:49.349Z,12.97
2019-04-01T02:33:19.774Z,13.87
2019-04-01T02:35:50.182Z,12.00
2019-04-01T02:38:20.658Z,13.40
2019-04-01T02:40:51.078Z,11.80
2019-04-01T02:43:24.669Z,10.47
2019-04-01T02:45:55.252Z,9.47
2019-04-01T02:48:25.856Z,10.73
2019-04-01T02:50:56.312Z,11.47
2019-04-01T02:53:26.716Z,10.93
2019-04-01T02:55:57.247Z,11.87
2019-04-01T02:58:27.657Z,10.10
2019-04-01T03:00:58.100Z,12.13
2019-04-01T03:03:28.504Z,11.50
2019-04-01T03:05:58.941Z,10.63
2019-04-01T03:08:29.383Z,12.00
2019-04-01T03:10:59.890Z,13.67
2019-04-01T03:13:30.642Z,11.63
2019-04-01T03:16:02.090Z,10.63
2019-04-01T03:18:34.748Z,12.50
2019-04-01T03:21:05.143Z,13.27
2019-04-01T03:23:35.922Z,10.47
2019-04-01T03:26:06.409Z,11.53
2019-04-01T03:28:36.866Z,11.60
2019-04-01T03:31:07.255Z,11.57
2019-04-01T03:33:37.716Z,12.07
2019-04-01T03:36:08.197Z,14.23
2019-04-01T03:38:38.598Z,13.30
2019-04-01T03:41:09.053Z,14.10
2019-04-01T03:43:39.466Z,11.90
2019-04-01T03:46:09.906Z,14.03
2019-04-01T03:48:40.325Z,13.37
2019-04-01T03:51:10.791Z,12.27
2019-04-01T03:53:41.228Z,12.17
2019-04-01T03:56:11.761Z,15.53
2019-04-01T03:58:42.257Z,15.67
2019-04-01T04:01:12.761Z,14.03
2019-04-01T04:03:43.240Z,13.93
2019-04-01T04:06:13.810Z,14.83
2019-04-01T04:08:44.218Z,13.73
2019-04-01T04:11:14.728Z,15.87
2019-04-01T04:13:45.181Z,13.90
2019-04-01T04:16:18.013Z,14.20
2019-04-01T04:18:48.456Z,19.93
2019-04-01T04:21:23.495Z,19.67
2019-04-01T04:23:51.025Z,16.47
2019-04-01T04:26:21.477Z,16.87
2019-04-01T04:28:52.003Z,18.07
2019-04-01T04:31:22.397Z,20.03
2019-04-01T04:33:52.937Z,22.27
2019-04-01T04:36:23.360Z,22.13
2019-04-01T04:38:54.239Z,22.43
2019-04-01T04:41:24.811Z,18.53
2019-04-01T04:43:55.210Z,19.80
2019-04-01T04:46:27.962Z,20.80
2019-04-01T04:48:58.387Z,23.83
2019-04-01T04:51:28.837Z,19.17
2019-04-01T04:53:59.263Z,21.30
2019-04-01T04:56:29.686Z,22.60
2019-04-01T04:59:00.163Z,24.07
2019-04-01T05:01:31.806Z,24.53
2019-04-01T05:04:02.233Z,25.00
2019-04-01T05:06:32.725Z,27.03
2019-04-01T05:09:04.830Z,22.80
2019-04-01T05:11:35.287Z,26.93
2019-04-01T05:14:05.836Z,27.83
2019-04-01T05:16:36.539Z,29.47
2019-04-01T05:19:07.299Z,26.53
2019-04-01T05:21:38.556Z,29.33
2019-04-01T05:24:09.093Z,26.87
2019-04-01T05:26:42.103Z,25.93
2019-04-01T05:29:15.135Z,25.00
2019-04-01T05:31:48.525Z,22.20
2019-04-01T05:34:22.714Z,24.23
2019-04-01T05:36:53.348Z,23.53
2019-04-01T05:39:24.452Z,26.47
2019-04-01T05:41:55.109Z,27.67
2019-04-01T05:44:25.599Z,26.37
2019-04-01T05:46:56.022Z,24.83
2019-04-01T05:49:26.980Z,30.23
2019-04-01T05:51:57.630Z,28.17
2019-04-01T05:54:28.063Z,30.30
2019-04-01T05:56:59.013Z,32.80
2019-04-01T05:59:29.388Z,30.67
2019-04-01T06:01:59.828Z,27.13
2019-04-01T06:04:30.570Z,30.80
2019-04-01T06:07:01.094Z,37.37
2019-04-01T06:09:32.134Z,45.43
2019-04-01T06:12:02.986Z,52.30
2019-04-01T06:14:34.334Z,58.97
2019-04-01T06:17:04.963Z,83.40
2019-04-01T06:19:35.572Z,111.60
2019-04-01T06:22:06.137Z,150.47
2019-04-01T06:24:36.578Z,183.67
2019-04-01T06:27:07.034Z,200.40
2019-04-01T06:29:37.479Z,227.40
2019-04-01T06:32:07.926Z,237.50
2019-04-01T06:34:52.041Z,239.23
2019-04-01T06:37:10.550Z,208.87
2019-04-01T06:39:41.035Z,181.30
2019-04-01T06:42:12.960Z,160.23
2019-04-01T06:44:44.520Z,144.23
2019-04-01T06:47:15.312Z,118.23
2019-04-01T06:49:45.838Z,95.30
2019-04-01T06:52:16.303Z,79.23
2019-04-01T06:54:47.083Z,78.07
2019-04-01T06:57:17.588Z,69.67
2019-04-01T06:59:48.078Z,63.93
2019-04-01T07:02:18.547Z,60.70
2019-04-01T07:04:49.303Z,57.60
2019-04-01T07:07:19.985Z,53.63
2019-04-01T07:09:50.945Z,54.43
2019-04-01T07:12:21.758Z,49.13
2019-04-01T07:14:52.378Z,47.97
2019-04-01T07:17:23.234Z,49.13
2019-04-01T07:19:55.934Z,51.83
2019-04-01T07:22:26.674Z,49.40
2019-04-01T07:24:57.118Z,48.03
2019-04-01T07:27:27.567Z,49.07
2019-04-01T07:29:58.029Z,40.40
2019-04-01T07:32:28.553Z,43.37
2019-04-01T07:34:58.979Z,41.27
2019-04-01T07:37:29.447Z,42.83
2019-04-01T07:39:59.904Z,42.13
2019-04-01T07:42:30.578Z,39.90
2019-04-01T07:45:01.052Z,40.27
2019-04-01T07:47:31.495Z,39.37
2019-04-01T07:50:02.242Z,42.50
2019-04-01T07:52:33.479Z,38.47
2019-04-01T07:55:04.206Z,34.17
2019-04-01T07:57:34.634Z,36.53
2019-04-01T08:00:05.884Z,34.13
2019-04-01T08:02:36.866Z,32.93
2019-04-01T08:05:07.945Z,34.07
2019-04-01T08:07:38.380Z,33.90
2019-04-01T08:10:10.031Z,34.73
2019-04-01T08:12:40.856Z,36.00
2019-04-01T08:15:12.975Z,32.93
2019-04-01T08:17:43.457Z,30.00
2019-04-01T08:20:14.967Z,29.00
2019-04-01T08:22:45.660Z,30.77
2019-04-01T08:25:16.400Z,33.43
2019-04-01T08:27:47.151Z,29.17
2019-04-01T08:30:17.975Z,28.13
2019-04-01T08:32:48.456Z,28.33
2019-04-01T08:35:18.898Z,28.73
2019-04-01T08:37:49.518Z,28.07
2019-04-01T08:40:19.989Z,27.47
2019-04-01T08:42:51.004Z,30.10
2019-04-01T08:45:21.471Z,32.90
2019-04-01T08:47:53.190Z,28.57
2019-04-01T08:50:24.231Z,26.13
2019-04-01T08:52:54.768Z,26.60
2019-04-01T08:55:25.442Z,26.50
2019-04-01T08:57:56.282Z,28.00
2019-04-01T09:00:28.755Z,28.93
2019-04-01T09:03:01.662Z,27.50
2019-04-01T09:05:32.293Z,28.00
2019-04-01T09:08:02.895Z,28.13
2019-04-01T09:10:33.489Z,33.17
2019-04-01T09:13:04.189Z,25.73
2019-04-01T09:15:35.752Z,27.93
2019-04-01T09:18:06.298Z,26.43
2019-04-01T09:20:36.785Z,25.83
2019-04-01T09:23:07.273Z,27.57
2019-04-01T09:25:37.735Z,26.17
2019-04-01T09:28:08.382Z,26.63
2019-04-01T09:30:39.000Z,27.80
2019-04-01T09:33:09.483Z,28.57
2019-04-01T09:35:41.096Z,26.70
2019-04-01T09:38:11.687Z,31.03
2019-04-01T09:40:42.117Z,28.37
2019-04-01T09:43:14.286Z,26.73
2019-04-01T09:45:45.042Z,28.10
2019-04-01T09:48:15.539Z,26.63
2019-04-01T09:50:46.005Z,29.07
2019-04-01T09:53:16.457Z,23.97
2019-04-01T09:55:46.894Z,27.50
2019-04-01T09:58:17.697Z,26.33
2019-04-01T10:00:53.255Z,25.57
2019-04-01T10:03:22.789Z,28.73
2019-04-01T10:05:54.909Z,23.80
2019-04-01T10:08:25.511Z,26.20
2019-04-01T10:10:56.087Z,25.50
2019-04-01T10:13:31.279Z,22.53
2019-04-01T10:16:04.621Z,26.67
2019-04-01T10:18:35.091Z,21.83
2019-04-01T10:21:05.942Z,23.50
2019-04-01T10:23:36.525Z,23.00
2019-04-01T10:26:07.408Z,22.50
2019-04-01T10:28:39.328Z,24.63
2019-04-01T10:31:09.774Z,23.53
2019-04-01T10:33:41.441Z,23.60
2019-04-01T10:36:11.976Z,24.23
2019-04-01T10:38:42.550Z,21.57
2019-04-01T10:41:13.162Z,23.13
2019-04-01T10:43:45.475Z,24.87
2019-04-01T10:46:17.265Z,23.23
2019-04-01T10:48:47.974Z,26.87
2019-04-01T10:51:18.797Z,21.50
2019-04-01T10:53:50.484Z,24.47
2019-04-01T10:56:20.989Z,23.93
2019-04-01T10:58:52.751Z,22.07
2019-04-01T11:01:24.680Z,20.57
2019-04-01T11:03:55.224Z,21.40
2019-04-01T11:06:26.049Z,20.63
2019-04-01T11:08:57.993Z,23.93
2019-04-01T11:11:29.982Z,26.40
2019-04-01T11:14:00.539Z,22.57
2019-04-01T11:16:34.274Z,24.00
2019-04-01T11:19:04.792Z,19.23
2019-04-01T11:21:35.804Z,20.73
2019-04-01T11:24:10.629Z,21.30
2019-04-01T11:26:41.246Z,23.13
2019-04-01T11:29:12.252Z,19.27
2019-04-01T11:31:44.385Z,19.90
2019-04-01T11:34:15.097Z,21.17
2019-04-01T11:36:46.084Z,19.67
2019-04-01T11:39:18.167Z,18.97
2019-04-01T11:41:50.045Z,19.77
2019-04-01T11:44:22.267Z,19.77
2019-04-01T11:46:53.843Z,20.43
2019-04-01T11:49:24.460Z,19.03
2019-04-01T11:51:55.038Z,22.00
2019-04-01T11:54:25.637Z,19.33
2019-04-01T11:56:58.116Z,20.73
2019-04-01T11:59:28.624Z,18.63
2019-04-01T12:01:59.380Z,20.27
2019-04-01T12:04:29.812Z,19.70
2019-04-01T12:07:02.029Z,18.20
2019-04-01T12:09:32.447Z,17.10
2019-04-01T12:12:04.040Z,17.83
2019-04-01T12:14:34.654Z,17.87
2019-04-01T12:17:05.083Z,18.50
2019-04-01T12:19:35.617Z,20.63
2019-04-01T12:22:06.022Z,16.93
2019-04-01T12:24:36.991Z,16.47
2019-04-01T12:27:10.162Z,16.93
2019-04-01T12:29:41.039Z,16.10
2019-04-01T12:32:11.676Z,17.37
2019-04-01T12:34:43.650Z,17.97
2019-04-01T12:37:14.238Z,19.57
2019-04-01T12:39:44.743Z,16.20
2019-04-01T12:42:16.016Z,16.53
2019-04-01T12:44:47.225Z,15.43
2019-04-01T12:47:17.761Z,15.50
2019-04-01T12:49:48.215Z,17.70
2019-04-01T12:52:18.639Z,17.57
2019-04-01T12:54:49.107Z,16.10
2019-04-01T12:57:20.965Z,15.33
2019-04-01T12:59:54.365Z,16.63
2019-04-01T13:02:24.998Z,16.43
2019-04-01T13:04:55.460Z,18.87
2019-04-01T13:07:25.907Z,16.57
2019-04-01T13:09:56.353Z,17.80
2019-04-01T13:12:27.598Z,16.50
2019-04-01T13:14:58.396Z,16.73
2019-04-01T13:17:28.908Z,14.80
2019-04-01T13:19:59.351Z,15.93
2019-04-01T13:22:29.819Z,17.90
2019-04-01T13:25:01.017Z,17.00
2019-04-01T13:27:32.341Z,18.00
2019-04-01T13:30:02.792Z,14.43
2019-04-01T13:32:33.335Z,15.07
2019-04-01T13:35:04.107Z,17.07
2019-04-01T13:37:34.829Z,16.53
2019-04-01T13:40:05.635Z,13.97
2019-04-01T13:42:36.087Z,17.17
2019-04-01T13:45:06.823Z,17.37
2019-04-01T13:47:37.222Z,17.23
2019-04-01T13:50:08.964Z,15.83
2019-04-01T13:52:39.406Z,16.87
2019-04-01T13:55:10.973Z,17.63
2019-04-01T13:57:42.011Z,15.57
2019-04-01T14:00:15.057Z,15.73
2019-04-01T14:02:45.752Z,15.40
2019-04-01T14:05:16.815Z,15.63
2019-04-01T14:07:48.066Z,13.97
2019-04-01T14:10:18.818Z,13.50
2019-04-01T14:12:49.546Z,15.67
2019-04-01T14:15:20.014Z,15.50
2019-04-01T14:17:50.464Z,17.27
2019-04-01T14:20:20.933Z,15.00
2019-04-01T14:22:53.572Z,16.27
2019-04-01T14:25:25.916Z,14.10
2019-04-01T14:28:02.612Z,17.07
2019-04-01T14:30:34.230Z,14.57
2019-04-01T14:33:17.189Z,13.97
2019-04-01T14:35:49.507Z,13.47
2019-04-01T14:38:19.950Z,15.23
2019-04-01T14:40:53.831Z,12.17
2019-04-01T14:43:24.377Z,12.93
2019-04-01T14:45:55.167Z,14.07
2019-04-01T14:48:25.656Z,13.27
2019-04-01T14:50:56.136Z,13.83
2019-04-01T14:53:26.673Z,13.07
2019-04-01T14:55:57.140Z,14.77
2019-04-01T14:58:27.618Z,13.77
2019-04-01T15:00:58.183Z,13.73
2019-04-01T15:03:28.653Z,13.77
2019-04-01T15:05:59.117Z,14.20
2019-04-01T15:08:29.562Z,13.93
2019-04-01T15:11:00.056Z,13.63
2019-04-01T15:13:30.515Z,16.80
2019-04-01T15:16:01.146Z,14.53
2019-04-01T15:18:34.321Z,13.43
2019-04-01T15:21:04.060Z,13.33
2019-04-01T15:23:34.505Z,15.17
2019-04-01T15:26:05.067Z,14.73
2019-04-01T15:28:35.606Z,13.23
2019-04-01T15:31:06.593Z,13.40
2019-04-01T15:33:38.215Z,14.27
2019-04-01T15:36:08.711Z,13.37
2019-04-01T15:38:39.199Z,14.87
2019-04-01T15:41:09.652Z,14.37
2019-04-01T15:43:41.015Z,13.77
2019-04-01T15:46:11.792Z,13.37
2019-04-01T15:48:42.482Z,13.73
2019-04-01T15:51:12.917Z,12.30
2019-04-01T15:53:44.230Z,14.80
2019-04-01T15:56:14.804Z,14.10
2019-04-01T15:58:45.310Z,12.73
2019-04-01T16:01:15.804Z,12.00
2019-04-01T16:03:46.276Z,11.87
2019-04-01T16:06:16.885Z,13.20
2019-04-01T16:08:47.413Z,12.20
2019-04-01T16:11:18.154Z,13.73
2019-04-01T16:13:49.372Z,14.60
2019-04-01T16:16:19.837Z,13.03
2019-04-01T16:18:50.349Z,13.00
2019-04-01T16:21:20.818Z,15.43
2019-04-01T16:23:51.445Z,18.07
2019-04-01T16:26:21.947Z,15.47
2019-04-01T16:28:52.448Z,15.67
2019-04-01T16:31:23.119Z,12.63
2019-04-01T16:33:55.173Z,13.60
2019-04-01T16:36:28.895Z,12.23
2019-04-01T16:38:59.388Z,12.73
2019-04-01T16:41:30.969Z,14.13
2019-04-01T16:44:01.879Z,12.87
2019-04-01T16:46:32.383Z,13.07
2019-04-01T16:49:03.066Z,14.27
2019-04-01T16:51:33.714Z,15.90
2019-04-01T16:54:05.772Z,13.87
2019-04-01T16:56:36.225Z,14.70
2019-04-01T16:59:06.729Z,17.07
2019-04-01T17:01:37.269Z,15.63
2019-04-01T17:04:09.190Z,16.10
2019-04-01T17:06:39.647Z,14.00
2019-04-01T17:09:15.379Z,14.63
2019-04-01T17:11:46.005Z,15.93
2019-04-01T17:14:17.565Z,15.17
2019-04-01T17:16:48.090Z,13.47
2019-04-01T17:19:19.037Z,14.87
2019-04-01T17:21:49.545Z,15.40
2019-04-01T17:24:20.092Z,13.77
2019-04-01T17:27:12.100Z,13.63
2019-04-01T17:29:45.621Z,14.87
2019-04-01T17:32:18.539Z,18.97
2019-04-01T17:34:49.001Z,19.60
2019-04-01T17:37:19.897Z,15.57
2019-04-01T17:39:54.437Z,22.93
2019-04-01T17:42:25.092Z,14.33
2019-04-01T17:44:59.282Z,15.33
2019-04-01T17:47:29.754Z,15.80
2019-04-01T17:50:00.594Z,15.80
2019-04-01T17:52:31.096Z,13.53
2019-04-01T17:55:10.659Z,15.40
2019-04-01T17:57:41.557Z,16.67
2019-04-01T18:00:29.234Z,15.77
2019-04-01T18:03:01.740Z,15.20
2019-04-01T18:05:55.024Z,16.10
2019-04-01T18:08:25.734Z,15.73
2019-04-01T18:10:57.417Z,13.33
2019-04-01T18:13:29.657Z,12.13
2019-04-01T18:16:11.035Z,14.50
2019-04-01T18:18:44.583Z,16.93
2019-04-01T18:21:18.169Z,15.10
2019-04-01T18:23:50.763Z,13.17
2019-04-01T18:26:21.451Z,14.17
2019-04-01T18:28:52.451Z,15.20
2019-04-01T18:31:26.742Z,11.10
2019-04-01T18:34:04.550Z,14.60
2019-04-01T18:36:35.694Z,14.43
2019-04-01T18:39:09.858Z,13.70
2019-04-01T18:41:41.724Z,14.20
2019-04-01T18:44:18.715Z,15.47
2019-04-01T18:46:50.616Z,15.27
2019-04-01T18:49:21.199Z,12.53
2019-04-01T18:51:52.177Z,11.80
2019-04-01T18:54:29.411Z,11.37
2019-04-01T18:57:11.333Z,11.97
2019-04-01T18:59:44.477Z,15.07
2019-04-01T19:02:22.506Z,11.30
2019-04-01T19:05:14.769Z,15.60
2019-04-01T19:08:07.310Z,13.97
2019-04-01T19:11:05.066Z,14.77
2019-04-01T19:13:36.555Z,16.10
2019-04-01T19:16:17.503Z,16.20
2019-04-01T19:18:48.254Z,13.80
2019-04-01T19:21:18.725Z,14.93
2019-04-01T19:23:49.335Z,15.30
2019-04-01T19:26:19.849Z,12.20
2019-04-01T19:28:50.381Z,12.87
2019-04-01T19:31:20.936Z,13.47
2019-04-01T19:33:51.516Z,13.63
2019-04-01T19:36:23.019Z,15.30
2019-04-01T19:38:54.764Z,15.70
2019-04-01T19:41:27.372Z,13.70
2019-04-01T19:43:59.049Z,15.53
2019-04-01T19:46:30.175Z,16.37
2019-04-01T19:49:04.746Z,18.33
2019-04-01T19:51:36.006Z,16.00
2019-04-01T19:54:07.919Z,20.60
2019-04-01T19:56:39.695Z,21.27
2019-04-01T19:59:11.812Z,15.27
2019-04-01T20:01:42.895Z,19.63
2019-04-01T20:04:16.920Z,16.57
2019-04-01T20:06:50.202Z,17.10
2019-04-01T20:09:21.768Z,16.60
2019-04-01T20:11:58.236Z,17.00
2019-04-01T20:14:27.497Z,15.30
2019-04-01T20:17:02.021Z,15.93
2019-04-01T20:19:33.189Z,19.73
2019-04-01T20:22:04.684Z,17.37
2019-04-01T20:24:35.488Z,17.23
2019-04-01T20:27:08.807Z,18.27
2019-04-01T20:29:41.508Z,16.23
2019-04-01T20:32:17.434Z,16.60
2019-04-01T20:34:56.467Z,18.07
2019-04-01T20:37:16.585Z,18.03
2019-04-01T20:39:47.155Z,17.23
2019-04-01T20:42:18.683Z,17.57
2019-04-01T20:44:49.203Z,16.87
2019-04-01T20:47:19.725Z,23.47
2019-04-01T20:49:53.306Z,17.77
2019-04-01T20:52:23.963Z,18.63
2019-04-01T20:54:54.496Z,17.63
2019-04-01T20:57:26.435Z,14.07
2019-04-01T20:59:58.395Z,16.33
2019-04-01T21:02:28.874Z,19.27
2019-04-01T21:05:00.414Z,15.63
2019-04-01T21:07:31.069Z,18.13
2019-04-01T21:10:01.684Z,17.77
2019-04-01T21:12:32.150Z,16.73
2019-04-01T21:15:02.684Z,17.80
2019-04-01T21:17:33.205Z,17.57
2019-04-01T21:20:04.888Z,16.57
2019-04-01T21:22:36.683Z,17.97
2019-04-01T21:25:07.835Z,16.50
2019-04-01T21:27:39.181Z,15.57
2019-04-01T21:30:11.509Z,14.17
2019-04-01T21:32:41.958Z,21.33
2019-04-01T21:35:12.860Z,18.33
2019-04-01T21:37:43.439Z,16.73
2019-04-01T21:40:14.344Z,17.00
2019-04-01T21:42:44.776Z,19.43
2019-04-01T21:45:16.301Z,15.97
2019-04-01T21:47:47.436Z,14.83
2019-04-01T21:50:18.280Z,18.60
2019-04-01T21:52:48.738Z,21.50
2019-04-01T21:55:19.228Z,16.43
2019-04-01T21:57:51.134Z,16.03
2019-04-01T22:00:39.978Z,17.07
2019-04-01T22:03:10.487Z,17.13
2019-04-01T22:05:40.939Z,17.60
2019-04-01T22:08:13.703Z,16.30
2019-04-01T22:10:44.081Z,16.40
2019-04-01T22:13:14.811Z,15.60
2019-04-01T22:15:45.289Z,16.33
2019-04-01T22:18:15.722Z,16.47
2019-04-01T22:20:46.247Z,15.77
2019-04-01T22:23:16.735Z,16.23
2019-04-01T22:25:49.664Z,16.43
2019-04-01T22:28:20.083Z,15.57
2019-04-01T22:30:50.548Z,18.03
2019-04-01T22:33:20.967Z,16.03
2019-04-01T22:35:51.449Z,13.63
2019-04-01T22:38:25.352Z,14.67
2019-04-01T22:40:56.123Z,16.60
2019-04-01T22:43:26.599Z,16.20
2019-04-01T22:45:58.541Z,15.00
2019-04-01T22:48:29.001Z,15.13
2019-04-01T22:50:59.466Z,17.43
2019-04-01T22:53:30.291Z,17.47
2019-04-01T22:56:00.785Z,15.80
2019-04-01T22:58:31.192Z,14.43
2019-04-01T23:01:01.716Z,15.97
2019-04-01T23:03:32.143Z,14.47
2019-04-01T23:06:02.626Z,17.87
2019-04-01T23:08:32.979Z,16.00
2019-04-01T23:11:03.624Z,14.40
2019-04-01T23:13:34.038Z,17.27
2019-04-01T23:16:07.313Z,16.57
2019-04-01T23:18:37.779Z,18.70
2019-04-01T23:21:08.206Z,20.93
2019-04-01T23:23:38.721Z,18.03
2019-04-01T23:26:09.151Z,18.17
2019-04-01T23:28:39.617Z,17.93
2019-04-01T23:31:10.301Z,19.00
2019-04-01T23:33:41.036Z,19.40
2019-04-01T23:36:12.326Z,17.90
2019-04-01T23:38:43.412Z,17.63
2019-04-01T23:41:13.832Z,15.13
2019-04-01T23:43:44.250Z,18.13
2019-04-01T23:46:14.720Z,16.90
2019-04-01T23:48:45.135Z,16.50
2019-04-01T23:51:17.657Z,15.57
2019-04-01T23:53:48.110Z,17.20
2019-04-01T23:56:18.577Z,15.70
2019-04-01T23:58:49.004Z,14.70
